createdAt,value
2023-02-14T00:02:03.294Z,35.30
2023-02-14T00:04:31.352Z,36.05
2023-02-14T00:07:00.559Z,36.50
2023-02-14T00:09:28.576Z,39.22
2023-02-14T00:11:58.963Z,35.72
2023-02-14T00:14:46.010Z,36.28
2023-02-14T00:17:17.762Z,35.40
2023-02-14T00:19:45.752Z,35.97
2023-02-14T00:22:14.915Z,37.03
2023-02-14T00:24:43.303Z,40.33
2023-02-14T00:27:11.348Z,38.45
2023-02-14T00:29:40.525Z,39.78
2023-02-14T00:32:10.960Z,41.40
2023-02-14T00:34:42.061Z,39.75
2023-02-14T00:37:12.939Z,44.25
2023-02-14T00:39:40.964Z,40.60
2023-02-14T00:42:08.975Z,40.70
2023-02-14T00:44:39.147Z,40.00
2023-02-14T00:47:09.831Z,39.92
2023-02-14T00:49:37.804Z,40.38
2023-02-14T00:52:07.705Z,41.45
2023-02-14T00:54:35.806Z,40.47
2023-02-14T00:57:03.845Z,40.28
2023-02-14T00:59:31.837Z,38.13
2023-02-14T01:01:59.781Z,41.25
2023-02-14T01:04:30.276Z,40.55
2023-02-14T01:06:59.729Z,41.88
2023-02-14T01:09:31.448Z,39.60
2023-02-14T01:12:03.362Z,38.60
2023-02-14T01:14:33.777Z,39.97
2023-02-14T01:17:02.032Z,41.47
2023-02-14T01:19:31.382Z,39.53
2023-02-14T01:22:01.607Z,44.10
2023-02-14T01:24:30.976Z,40.58
2023-02-14T01:29:29.701Z,41.17
2023-02-14T01:31:59.247Z,41.65
2023-02-14T01:34:27.422Z,40.10
2023-02-14T01:36:55.446Z,41.53
2023-02-14T01:39:25.817Z,38.03
2023-02-14T01:41:56.710Z,43.33
2023-02-14T01:44:58.397Z,42.97
2023-02-14T01:47:31.290Z,41.47
2023-02-14T01:50:05.688Z,42.90
2023-02-14T01:52:38.502Z,40.70
2023-02-14T01:55:15.005Z,39.33
2023-02-14T01:57:53.292Z,37.25
2023-02-14T02:00:39.860Z,36.85
2023-02-14T02:03:10.413Z,36.47
2023-02-14T02:05:45.735Z,37.90
2023-02-14T02:08:16.783Z,37.75
2023-02-14T02:10:46.451Z,38.83
2023-02-14T02:13:19.983Z,38.03
2023-02-14T02:16:08.822Z,39.47
2023-02-14T02:18:53.125Z,39.08
2023-02-14T02:22:09.013Z,36.38
2023-02-14T02:24:50.810Z,36.47
2023-02-14T02:27:56.030Z,33.97
2023-02-14T02:30:56.592Z,37.55
2023-02-14T02:34:04.935Z,42.33
2023-02-14T02:37:16.179Z,37.33
2023-02-14T02:40:03.871Z,38.95
2023-02-14T02:42:47.220Z,36.30
2023-02-14T02:45:29.679Z,37.97
2023-02-14T02:48:11.458Z,37.05
2023-02-14T02:51:03.806Z,35.75
2023-02-14T02:53:43.761Z,34.17
2023-02-14T02:56:35.345Z,37.10
2023-02-14T02:59:18.200Z,35.47
2023-02-14T03:02:00.506Z,36.80
2023-02-14T03:04:46.925Z,36.35
2023-02-14T03:07:33.048Z,38.88
2023-02-14T03:10:13.121Z,38.20
2023-02-14T03:13:07.951Z,35.15
2023-02-14T03:15:56.718Z,35.20
2023-02-14T03:19:03.539Z,36.80
2023-02-14T03:21:41.591Z,39.28
2023-02-14T03:24:21.612Z,40.03
2023-02-14T03:26:59.037Z,39.85
2023-02-14T03:29:44.730Z,36.72
2023-02-14T03:32:19.446Z,35.80
2023-02-14T03:34:57.214Z,36.80
2023-02-14T03:37:32.537Z,37.33
2023-02-14T03:40:09.896Z,41.00
2023-02-14T03:42:47.442Z,41.30
2023-02-14T03:45:28.870Z,38.00
2023-02-14T03:48:01.441Z,36.50
2023-02-14T03:50:34.073Z,36.65
2023-02-14T03:53:04.248Z,35.33
2023-02-14T03:55:38.744Z,35.85
2023-02-14T03:58:17.483Z,35.50
2023-02-14T04:00:47.641Z,35.85
2023-02-14T04:03:19.488Z,37.40
2023-02-14T04:05:52.583Z,39.47
2023-02-14T04:08:29.739Z,41.22
2023-02-14T04:11:01.668Z,41.00
2023-02-14T04:13:32.988Z,36.30
2023-02-14T04:16:01.230Z,37.65
2023-02-14T04:18:48.235Z,37.67
2023-02-14T04:21:18.030Z,35.90
2023-02-14T04:23:46.030Z,35.78
2023-02-14T04:26:15.245Z,36.40
2023-02-14T04:28:45.756Z,35.85
2023-02-14T04:31:13.974Z,37.30
2023-02-14T04:33:42.247Z,38.42
2023-02-14T04:36:10.747Z,38.72
2023-02-14T04:38:41.199Z,37.45
2023-02-14T04:41:10.644Z,42.22
2023-02-14T04:43:39.826Z,38.50
2023-02-14T04:46:09.439Z,36.05
2023-02-14T04:48:39.836Z,36.03
2023-02-14T04:51:09.708Z,37.50
2023-02-14T04:53:40.377Z,36.83
2023-02-14T04:56:08.935Z,36.80
2023-02-14T04:58:38.194Z,38.42
2023-02-14T05:01:06.369Z,37.95
2023-02-14T05:03:38.108Z,37.42
2023-02-14T05:06:06.631Z,37.15
2023-02-14T05:08:37.529Z,37.97
2023-02-14T05:11:06.239Z,38.20
2023-02-14T05:13:35.465Z,39.05
2023-02-14T05:16:04.668Z,35.85
2023-02-14T05:18:33.873Z,38.92
2023-02-14T05:21:06.019Z,37.22
2023-02-14T05:23:35.630Z,37.08
2023-02-14T05:26:06.961Z,38.50
2023-02-14T05:28:36.556Z,36.83
2023-02-14T05:31:06.215Z,40.08
2023-02-14T05:33:34.369Z,36.67
2023-02-14T05:36:07.683Z,36.00
2023-02-14T05:38:36.913Z,38.13
2023-02-14T05:41:05.230Z,37.65
2023-02-14T05:43:34.424Z,35.80
2023-02-14T05:46:04.836Z,35.47
2023-02-14T05:48:34.535Z,38.95
2023-02-14T05:51:07.615Z,37.35
2023-02-14T05:53:36.146Z,34.35
2023-02-14T05:56:06.409Z,36.33
2023-02-14T05:58:34.779Z,36.22
2023-02-14T06:01:02.892Z,38.60
2023-02-14T06:03:31.030Z,37.42
2023-02-14T06:06:00.239Z,39.83
2023-02-14T06:08:29.523Z,39.00
2023-02-14T06:10:57.661Z,38.92
2023-02-14T06:13:27.534Z,37.83
2023-02-14T06:15:58.115Z,37.92
2023-02-14T06:18:28.043Z,38.55
2023-02-14T06:20:58.055Z,40.10
2023-02-14T06:23:26.265Z,37.92
2023-02-14T06:25:56.950Z,39.30
2023-02-14T06:28:26.465Z,33.08
2023-02-14T06:30:54.651Z,38.83
2023-02-14T06:33:24.004Z,38.95
2023-02-14T06:35:56.183Z,37.08
2023-02-14T06:40:54.924Z,36.97
2023-02-14T06:43:24.323Z,40.40
2023-02-14T06:45:55.103Z,38.28
2023-02-14T06:48:24.729Z,36.88
2023-02-14T06:50:55.503Z,39.03
2023-02-14T06:53:23.516Z,39.17
2023-02-14T06:55:52.711Z,37.17
2023-02-14T06:58:23.640Z,35.90
2023-02-14T07:00:55.689Z,37.55
2023-02-14T07:03:23.937Z,38.78
2023-02-14T07:05:53.703Z,37.15
2023-02-14T07:08:25.287Z,38.20
2023-02-14T07:10:57.487Z,38.47
2023-02-14T07:13:27.353Z,35.47
2023-02-14T07:15:56.792Z,39.10
2023-02-14T07:18:24.798Z,38.15
2023-02-14T07:20:55.391Z,38.65
2023-02-14T07:23:23.590Z,37.28
2023-02-14T07:25:53.162Z,39.53
2023-02-14T07:28:21.932Z,37.30
2023-02-14T07:30:53.766Z,39.47
2023-02-14T07:33:23.018Z,35.17
2023-02-14T07:35:54.147Z,36.85
2023-02-14T07:38:24.583Z,39.37
2023-02-14T07:40:56.459Z,37.50
2023-02-14T07:43:24.456Z,36.75
2023-02-14T07:45:53.977Z,39.13
2023-02-14T07:48:23.651Z,39.70
2023-02-14T07:50:53.089Z,41.42
2023-02-14T07:53:22.753Z,39.30
2023-02-14T07:55:53.212Z,42.83
2023-02-14T07:58:21.339Z,42.28
2023-02-14T08:00:52.371Z,44.50
2023-02-14T08:03:22.985Z,41.70
2023-02-14T08:05:57.189Z,43.63
2023-02-14T08:08:27.307Z,44.10
2023-02-14T08:10:58.189Z,45.08
2023-02-14T08:13:28.549Z,42.33
2023-02-14T08:16:05.946Z,43.70
2023-02-14T08:18:38.646Z,42.55
2023-02-14T08:21:12.326Z,40.70
2023-02-14T08:23:40.502Z,40.97
2023-02-14T08:26:09.198Z,42.97
2023-02-14T08:28:38.628Z,47.60
2023-02-14T08:31:08.389Z,46.15
2023-02-14T08:33:38.217Z,43.70
2023-02-14T08:36:08.305Z,45.45
2023-02-14T08:38:37.786Z,46.58
2023-02-14T08:41:09.544Z,44.60
2023-02-14T08:43:39.637Z,44.08
2023-02-14T08:46:09.635Z,45.25
2023-02-14T08:48:39.608Z,46.10
2023-02-14T08:51:11.941Z,47.50
2023-02-14T08:53:42.286Z,47.05
2023-02-14T08:56:13.490Z,50.33
2023-02-14T08:58:42.824Z,45.97
2023-02-14T09:01:15.486Z,46.80
2023-02-14T09:03:45.244Z,47.13
2023-02-14T09:06:18.261Z,45.13
2023-02-14T09:08:46.989Z,46.45
2023-02-14T09:11:21.948Z,45.03
2023-02-14T09:13:54.406Z,46.60
2023-02-14T09:16:25.579Z,46.45
2023-02-14T09:18:56.717Z,45.75
2023-02-14T09:21:30.447Z,44.33
2023-02-14T09:23:59.930Z,50.28
2023-02-14T09:26:28.749Z,45.67
2023-02-14T09:28:58.301Z,47.65
2023-02-14T09:31:28.889Z,45.28
2023-02-14T09:33:59.642Z,47.92
2023-02-14T09:36:45.851Z,44.03
2023-02-14T09:39:15.521Z,47.08
2023-02-14T09:42:11.653Z,49.13
2023-02-14T09:44:43.803Z,47.72
2023-02-14T09:47:24.364Z,46.92
2023-02-14T09:49:55.755Z,47.60
2023-02-14T09:52:31.366Z,47.90
2023-02-14T09:55:02.782Z,47.42
2023-02-14T09:57:44.041Z,50.95
2023-02-14T10:00:23.942Z,44.50
2023-02-14T10:03:05.748Z,49.65
2023-02-14T10:05:44.645Z,46.88
2023-02-14T10:08:33.116Z,49.05
2023-02-14T10:11:08.056Z,48.70
2023-02-14T10:13:41.731Z,45.97
2023-02-14T10:16:20.366Z,46.22
2023-02-14T10:29:08.114Z,44.92
2023-02-14T10:31:43.079Z,43.53
2023-02-14T12:12:58.196Z,54.28
2023-02-14T12:15:40.186Z,46.00
2023-02-14T12:18:32.626Z,43.60
2023-02-14T12:21:17.348Z,44.30
2023-02-14T12:23:56.978Z,42.28
2023-02-14T12:26:33.197Z,44.00
2023-02-14T12:29:15.385Z,48.30
2023-02-14T12:31:45.983Z,51.30
2023-02-14T12:37:10.370Z,50.20
2023-02-14T12:39:55.049Z,48.13
2023-02-14T12:42:43.030Z,49.53
2023-02-14T12:45:21.052Z,50.10
2023-02-14T12:48:03.817Z,47.97
2023-02-14T12:50:44.479Z,45.22
2023-02-14T12:53:49.182Z,46.05
2023-02-14T12:56:32.129Z,44.00
2023-02-14T12:59:18.594Z,47.25
2023-02-14T13:02:52.004Z,45.70
2023-02-14T13:05:31.354Z,45.35
2023-02-14T13:08:17.611Z,48.30
2023-02-14T13:11:00.208Z,45.03
2023-02-14T15:56:52.651Z,44.85
2023-02-14T16:18:02.381Z,35.73
2023-02-14T16:20:47.082Z,41.42
2023-02-14T16:23:23.569Z,33.28
2023-02-14T16:25:54.192Z,45.55
2023-02-14T16:28:24.819Z,40.33
2023-02-14T16:30:57.205Z,42.15
2023-02-14T16:33:30.001Z,41.65
2023-02-14T16:36:09.231Z,43.45
2023-02-14T16:38:46.572Z,42.22
2023-02-14T16:41:20.161Z,41.45
2023-02-14T16:43:49.673Z,41.78
2023-02-14T16:46:20.773Z,39.85
2023-02-14T16:48:52.687Z,44.30
2023-02-14T16:51:24.573Z,39.90
2023-02-14T16:53:55.966Z,42.03
2023-02-14T16:56:33.221Z,39.97
2023-02-14T16:59:03.645Z,42.45
2023-02-14T17:01:32.142Z,40.15
2023-02-14T17:04:02.686Z,39.20
2023-02-14T17:06:32.781Z,40.65
2023-02-14T17:09:08.075Z,45.17
2023-02-14T17:11:43.846Z,40.92
2023-02-14T17:14:18.372Z,40.17
2023-02-14T17:16:46.719Z,297.85
2023-02-14T17:19:17.727Z,634.17
2023-02-14T17:21:46.974Z,317.80
2023-02-14T17:24:17.564Z,58.83
2023-02-14T17:26:46.864Z,75.10
2023-02-14T17:29:17.299Z,53.22
2023-02-14T17:31:45.453Z,69.15
2023-02-14T17:34:14.748Z,60.65
2023-02-14T17:36:44.596Z,51.03
2023-02-14T17:39:15.960Z,47.00
2023-02-14T17:41:44.087Z,44.75
2023-02-14T17:44:14.644Z,49.40
2023-02-14T17:46:42.715Z,48.97
2023-02-14T17:49:10.781Z,43.53
2023-02-14T17:51:40.295Z,47.05
2023-02-14T17:54:08.594Z,46.63
2023-02-14T17:56:37.786Z,50.47
2023-02-14T17:59:08.228Z,173.02
2023-02-14T18:01:39.096Z,281.58
2023-02-14T18:04:08.351Z,155.45
2023-02-14T18:06:37.810Z,103.40
2023-02-14T18:09:08.905Z,98.00
2023-02-14T18:11:42.200Z,123.35
2023-02-14T18:16:42.429Z,189.05
2023-02-14T18:19:14.339Z,100.75
2023-02-14T18:21:46.119Z,128.55
2023-02-14T18:24:16.155Z,574.78
2023-02-14T18:26:45.470Z,457.55
2023-02-14T18:29:15.239Z,439.95
2023-02-14T18:31:45.618Z,450.20
2023-02-14T18:34:15.353Z,447.42
2023-02-14T18:36:44.966Z,446.48
2023-02-14T18:39:15.408Z,438.95
2023-02-14T18:41:43.685Z,430.75
2023-02-14T18:44:15.405Z,421.38
2023-02-14T18:46:46.542Z,433.55
2023-02-14T18:49:15.374Z,425.80
2023-02-14T18:51:45.286Z,440.77
2023-02-14T18:54:14.444Z,418.58
2023-02-14T18:56:42.569Z,412.45
2023-02-14T18:59:14.533Z,446.42
2023-02-14T19:01:47.132Z,424.33
2023-02-14T19:04:17.881Z,420.42
2023-02-14T19:06:46.017Z,414.95
2023-02-14T19:09:18.265Z,435.10
2023-02-14T19:14:15.508Z,425.20
2023-02-14T19:16:50.434Z,421.15
2023-02-14T19:19:21.717Z,430.48
2023-02-14T19:21:52.053Z,402.08
2023-02-14T19:24:22.364Z,411.38
2023-02-14T19:26:51.537Z,427.00
2023-02-14T19:29:23.392Z,397.38
2023-02-14T19:31:55.638Z,385.75
2023-02-14T19:34:27.997Z,391.63
2023-02-14T19:37:00.494Z,420.55
2023-02-14T19:39:30.529Z,386.65
2023-02-14T19:42:00.879Z,403.23
2023-02-14T19:44:32.241Z,392.33
2023-02-14T19:47:04.216Z,401.83
2023-02-14T19:49:37.401Z,432.70
2023-02-14T19:52:14.174Z,471.45
2023-02-14T19:54:45.987Z,492.02
2023-02-14T19:57:17.354Z,399.48
2023-02-14T19:59:46.534Z,395.52
2023-02-14T20:02:19.829Z,131.80
2023-02-14T20:04:49.051Z,102.43
2023-02-14T20:07:18.197Z,513.45
2023-02-14T20:09:47.353Z,508.42
2023-02-14T20:12:16.490Z,576.30
2023-02-14T20:14:51.287Z,494.48
2023-02-14T20:17:22.361Z,444.33
2023-02-14T20:19:51.822Z,445.17
2023-02-14T20:22:23.034Z,433.27
2023-02-14T20:24:51.629Z,438.50
2023-02-14T20:27:21.596Z,470.17
2023-02-14T20:29:52.769Z,475.08
2023-02-14T20:32:22.387Z,772.15
2023-02-14T20:34:52.177Z,723.72
2023-02-14T20:37:21.368Z,688.03
2023-02-14T20:39:51.212Z,677.92
2023-02-14T20:42:20.979Z,685.72
2023-02-14T20:44:51.471Z,415.83
2023-02-14T20:47:20.044Z,103.85
2023-02-14T20:49:52.338Z,148.57
2023-02-14T20:52:20.452Z,89.78
2023-02-14T20:54:48.472Z,91.15
2023-02-14T20:57:17.636Z,95.07
2023-02-14T20:59:48.362Z,100.85
2023-02-14T21:02:18.332Z,127.25
2023-02-14T21:04:47.797Z,86.50
2023-02-14T21:07:19.139Z,92.35
2023-02-14T21:09:49.583Z,93.38
2023-02-14T21:12:18.857Z,88.45
2023-02-14T21:14:48.552Z,94.40
2023-02-14T21:17:16.735Z,89.00
2023-02-14T21:19:45.995Z,92.55
2023-02-14T21:22:15.573Z,90.47
2023-02-14T21:24:46.170Z,89.93
2023-02-14T21:27:14.145Z,90.82
2023-02-14T21:29:42.261Z,90.32
2023-02-14T21:32:10.337Z,94.75
2023-02-14T21:34:39.652Z,85.75
2023-02-14T21:37:07.711Z,85.82
2023-02-14T21:39:37.885Z,84.07
2023-02-14T21:42:11.356Z,86.72
2023-02-14T21:44:58.364Z,84.03
2023-02-14T21:47:27.662Z,85.55
2023-02-14T21:50:13.647Z,92.00
2023-02-14T21:52:43.329Z,86.05
2023-02-14T21:55:13.780Z,87.05
2023-02-14T21:57:44.299Z,87.80
2023-02-14T22:00:14.395Z,88.30
2023-02-14T22:02:44.063Z,89.20
2023-02-14T22:05:13.983Z,90.72
2023-02-14T22:07:42.567Z,175.48
2023-02-14T22:10:13.774Z,91.20
2023-02-14T22:12:42.155Z,86.93
2023-02-14T22:15:14.508Z,88.22
2023-02-14T22:17:44.269Z,87.88
2023-02-14T22:20:14.418Z,88.05
2023-02-14T22:22:43.266Z,86.43
2023-02-14T22:25:12.778Z,87.75
2023-02-14T22:27:42.082Z,87.88
2023-02-14T22:30:13.580Z,87.82
2023-02-14T22:32:43.119Z,85.20
2023-02-14T22:35:12.713Z,86.18
2023-02-14T22:37:41.990Z,88.57
2023-02-14T22:40:13.323Z,89.22
2023-02-14T22:42:41.388Z,89.63
2023-02-14T22:45:10.606Z,85.93
2023-02-14T22:47:39.915Z,87.35
2023-02-14T22:50:11.479Z,90.57
2023-02-14T22:52:41.297Z,85.53
2023-02-14T22:55:12.218Z,84.65
2023-02-14T22:57:41.156Z,144.75
2023-02-14T23:00:12.787Z,83.13
2023-02-14T23:02:43.409Z,120.28
2023-02-14T23:05:13.862Z,95.05
2023-02-14T23:07:43.027Z,96.25
2023-02-14T23:10:13.229Z,96.63
2023-02-14T23:12:59.974Z,98.93
2023-02-14T23:15:46.184Z,99.05
2023-02-14T23:18:34.273Z,94.07
2023-02-14T23:21:24.494Z,80.13
2023-02-14T23:23:53.708Z,62.10
2023-02-14T23:26:22.874Z,56.50
2023-02-14T23:28:52.034Z,62.00
2023-02-14T23:31:21.321Z,54.67
2023-02-14T23:33:53.281Z,57.25
2023-02-14T23:36:22.598Z,49.38
2023-02-14T23:38:52.075Z,55.70
2023-02-14T23:41:40.200Z,55.05
2023-02-14T23:44:09.545Z,55.42
2023-02-14T23:46:38.813Z,64.20
2023-02-14T23:49:09.623Z,85.03
2023-02-14T23:51:38.286Z,95.13
2023-02-14T23:54:06.913Z,96.05
2023-02-14T23:56:36.890Z,92.47
2023-02-14T23:59:06.882Z,87.70
